sensor_id;sensor_type;location;lat;lon;timestamp;temperature;humidity
13462;DHT22;6803;45.264;5.468;2022-09-21T00:00:01;9.20;99.90
13462;DHT22;6803;45.264;5.468;2022-09-21T00:02:32;9.30;99.90
13462;DHT22;6803;45.264;5.468;2022-09-21T00:05:03;9.40;99.90
13462;DHT22;6803;45.264;5.468;2022-09-21T00:07:34;9.30;99.90
13462;DHT22;6803;45.264;5.468;2022-09-21T00:10:06;9.30;99.90
13462;DHT22;6803;45.264;5.468;2022-09-21T00:12:37;9.20;99.90
13462;DHT22;6803;45.264;5.468;2022-09-21T00:15:10;9.30;99.90
13462;DHT22;6803;45.264;5.468;2022-09-21T00:17:40;9.20;99.90
13462;DHT22;6803;45.264;5.468;2022-09-21T00:20:11;9.10;99.90
13462;DHT22;6803;45.264;5.468;2022-09-21T00:22:42;9.10;99.90
13462;DHT22;6803;45.264;5.468;2022-09-21T00:25:13;9.00;99.90
13462;DHT22;6803;45.264;5.468;2022-09-21T00:27:44;9.20;99.90
13462;DHT22;6803;45.264;5.468;2022-09-21T00:30:16;9.40;99.90
13462;DHT22;6803;45.264;5.468;2022-09-21T00:32:47;9.50;99.90
13462;DHT22;6803;45.264;5.468;2022-09-21T00:35:17;9.60;99.90
13462;DHT22;6803;45.264;5.468;2022-09-21T00:37:48;9.70;99.90
13462;DHT22;6803;45.264;5.468;2022-09-21T00:40:19;9.70;99.90
13462;DHT22;6803;45.264;5.468;2022-09-21T00:42:49;9.50;99.90
13462;DHT22;6803;45.264;5.468;2022-09-21T00:45:20;9.50;99.90
13462;DHT22;6803;45.264;5.468;2022-09-21T00:47:52;9.50;99.90
13462;DHT22;6803;45.264;5.468;2022-09-21T00:50:24;9.40;99.90
13462;DHT22;6803;45.264;5.468;2022-09-21T00:52:56;9.30;99.90
13462;DHT22;6803;45.264;5.468;2022-09-21T00:55:29;9.30;99.90
13462;DHT22;6803;45.264;5.468;2022-09-21T01:00:41;9.30;99.90
13462;DHT22;6803;45.264;5.468;2022-09-21T01:03:13;9.20;99.90
13462;DHT22;6803;45.264;5.468;2022-09-21T01:05:43;9.40;99.90
13462;DHT22;6803;45.264;5.468;2022-09-21T01:08:15;9.50;99.90
13462;DHT22;6803;45.264;5.468;2022-09-21T01:10:54;9.30;99.90
13462;DHT22;6803;45.264;5.468;2022-09-21T01:13:30;9.30;99.90
13462;DHT22;6803;45.264;5.468;2022-09-21T01:16:04;9.50;99.90
13462;DHT22;6803;45.264;5.468;2022-09-21T01:18:37;9.60;99.90
13462;DHT22;6803;45.264;5.468;2022-09-21T01:21:19;9.70;99.90
13462;DHT22;6803;45.264;5.468;2022-09-21T01:24:22;9.70;99.90
13462;DHT22;6803;45.264;5.468;2022-09-21T01:30:02;9.60;99.90
13462;DHT22;6803;45.264;5.468;2022-09-21T01:32:36;9.30;99.90
13462;DHT22;6803;45.264;5.468;2022-09-21T01:35:09;9.10;99.90
13462;DHT22;6803;45.264;5.468;2022-09-21T01:37:43;9.00;99.90
13462;DHT22;6803;45.264;5.468;2022-09-21T01:40:18;8.90;99.90
13462;DHT22;6803;45.264;5.468;2022-09-21T01:42:50;8.80;99.90
13462;DHT22;6803;45.264;5.468;2022-09-21T01:45:23;8.70;99.90
13462;DHT22;6803;45.264;5.468;2022-09-21T01:47:58;8.60;99.90
13462;DHT22;6803;45.264;5.468;2022-09-21T01:50:31;8.50;99.90
13462;DHT22;6803;45.264;5.468;2022-09-21T01:53:05;8.30;99.90
13462;DHT22;6803;45.264;5.468;2022-09-21T01:55:39;8.50;99.90
13462;DHT22;6803;45.264;5.468;2022-09-21T01:58:15;8.80;99.90
13462;DHT22;6803;45.264;5.468;2022-09-21T02:00:47;9.20;99.90
13462;DHT22;6803;45.264;5.468;2022-09-21T02:03:21;9.30;99.90
13462;DHT22;6803;45.264;5.468;2022-09-21T02:05:53;9.10;99.90
13462;DHT22;6803;45.264;5.468;2022-09-21T02:08:25;9.00;99.90
13462;DHT22;6803;45.264;5.468;2022-09-21T02:10:56;9.00;99.90
13462;DHT22;6803;45.264;5.468;2022-09-21T02:13:32;9.30;99.90
13462;DHT22;6803;45.264;5.468;2022-09-21T02:16:12;9.30;99.90
13462;DHT22;6803;45.264;5.468;2022-09-21T02:18:48;9.80;99.90
13462;DHT22;6803;45.264;5.468;2022-09-21T02:21:22;9.70;99.90
13462;DHT22;6803;45.264;5.468;2022-09-21T02:23:58;9.40;99.90
13462;DHT22;6803;45.264;5.468;2022-09-21T02:26:32;8.90;99.90
13462;DHT22;6803;45.264;5.468;2022-09-21T02:29:09;8.60;99.90
13462;DHT22;6803;45.264;5.468;2022-09-21T02:31:43;8.50;99.90
13462;DHT22;6803;45.264;5.468;2022-09-21T02:34:17;8.40;99.90
13462;DHT22;6803;45.264;5.468;2022-09-21T02:36:51;8.30;99.90
13462;DHT22;6803;45.264;5.468;2022-09-21T02:39:29;8.40;99.90
13462;DHT22;6803;45.264;5.468;2022-09-21T02:42:02;8.70;99.90
13462;DHT22;6803;45.264;5.468;2022-09-21T02:44:35;9.00;99.90
13462;DHT22;6803;45.264;5.468;2022-09-21T02:47:10;9.50;99.90
13462;DHT22;6803;45.264;5.468;2022-09-21T02:49:43;9.60;99.90
13462;DHT22;6803;45.264;5.468;2022-09-21T02:52:17;9.90;99.90
13462;DHT22;6803;45.264;5.468;2022-09-21T02:54:51;9.80;99.90
13462;DHT22;6803;45.264;5.468;2022-09-21T02:57:23;9.50;99.90
13462;DHT22;6803;45.264;5.468;2022-09-21T02:59:54;9.50;99.90
13462;DHT22;6803;45.264;5.468;2022-09-21T03:02:34;9.20;99.90
13462;DHT22;6803;45.264;5.468;2022-09-21T03:05:08;9.00;99.90
13462;DHT22;6803;45.264;5.468;2022-09-21T03:07:39;8.80;99.90
13462;DHT22;6803;45.264;5.468;2022-09-21T03:10:10;8.70;99.90
13462;DHT22;6803;45.264;5.468;2022-09-21T03:12:41;9.00;99.90
13462;DHT22;6803;45.264;5.468;2022-09-21T03:15:13;9.20;99.90
13462;DHT22;6803;45.264;5.468;2022-09-21T03:17:45;9.20;99.90
13462;DHT22;6803;45.264;5.468;2022-09-21T03:20:16;9.10;99.90
13462;DHT22;6803;45.264;5.468;2022-09-21T03:22:47;9.10;99.90
13462;DHT22;6803;45.264;5.468;2022-09-21T03:25:17;9.00;99.90
13462;DHT22;6803;45.264;5.468;2022-09-21T03:27:48;9.10;99.90
13462;DHT22;6803;45.264;5.468;2022-09-21T03:30:21;8.90;99.90
13462;DHT22;6803;45.264;5.468;2022-09-21T03:32:53;8.60;99.90
13462;DHT22;6803;45.264;5.468;2022-09-21T03:35:24;8.60;99.90
13462;DHT22;6803;45.264;5.468;2022-09-21T03:37:55;8.40;99.90
13462;DHT22;6803;45.264;5.468;2022-09-21T03:40:27;8.40;99.90
13462;DHT22;6803;45.264;5.468;2022-09-21T03:42:59;8.60;99.90
13462;DHT22;6803;45.264;5.468;2022-09-21T03:45:30;8.70;99.90
13462;DHT22;6803;45.264;5.468;2022-09-21T03:48:01;8.90;99.90
13462;DHT22;6803;45.264;5.468;2022-09-21T03:50:32;8.80;99.90
13462;DHT22;6803;45.264;5.468;2022-09-21T03:53:03;8.50;99.90
13462;DHT22;6803;45.264;5.468;2022-09-21T03:55:35;8.30;99.90
13462;DHT22;6803;45.264;5.468;2022-09-21T03:58:06;8.10;99.90
13462;DHT22;6803;45.264;5.468;2022-09-21T04:00:37;7.80;99.90
13462;DHT22;6803;45.264;5.468;2022-09-21T04:03:08;8.00;99.90
13462;DHT22;6803;45.264;5.468;2022-09-21T04:05:39;7.90;99.90
13462;DHT22;6803;45.264;5.468;2022-09-21T04:08:10;7.90;99.90
13462;DHT22;6803;45.264;5.468;2022-09-21T04:10:40;7.90;99.90
13462;DHT22;6803;45.264;5.468;2022-09-21T04:13:11;8.00;99.90
13462;DHT22;6803;45.264;5.468;2022-09-21T04:15:42;7.90;99.90
13462;DHT22;6803;45.264;5.468;2022-09-21T04:18:12;7.80;99.90
13462;DHT22;6803;45.264;5.468;2022-09-21T04:20:43;7.60;99.90
13462;DHT22;6803;45.264;5.468;2022-09-21T04:23:13;7.70;99.90
13462;DHT22;6803;45.264;5.468;2022-09-21T04:25:44;7.90;99.90
13462;DHT22;6803;45.264;5.468;2022-09-21T04:28:16;8.00;99.90
13462;DHT22;6803;45.264;5.468;2022-09-21T04:30:47;7.80;99.90
13462;DHT22;6803;45.264;5.468;2022-09-21T04:33:19;8.00;99.90
13462;DHT22;6803;45.264;5.468;2022-09-21T04:35:54;7.90;99.90
13462;DHT22;6803;45.264;5.468;2022-09-21T04:38:25;7.80;99.90
13462;DHT22;6803;45.264;5.468;2022-09-21T04:40:57;7.80;99.90
13462;DHT22;6803;45.264;5.468;2022-09-21T04:43:27;7.80;99.90
13462;DHT22;6803;45.264;5.468;2022-09-21T04:46:02;7.80;99.90
13462;DHT22;6803;45.264;5.468;2022-09-21T04:48:30;8.10;99.90
13462;DHT22;6803;45.264;5.468;2022-09-21T04:51:01;8.00;99.90
13462;DHT22;6803;45.264;5.468;2022-09-21T04:53:32;8.40;99.90
13462;DHT22;6803;45.264;5.468;2022-09-21T04:56:05;8.70;99.90
13462;DHT22;6803;45.264;5.468;2022-09-21T04:58:36;9.00;99.90
13462;DHT22;6803;45.264;5.468;2022-09-21T05:01:06;8.90;99.90
13462;DHT22;6803;45.264;5.468;2022-09-21T05:03:37;8.90;99.90
13462;DHT22;6803;45.264;5.468;2022-09-21T05:06:08;8.90;99.90
13462;DHT22;6803;45.264;5.468;2022-09-21T05:08:40;8.90;99.90
13462;DHT22;6803;45.264;5.468;2022-09-21T05:11:28;8.80;99.90
13462;DHT22;6803;45.264;5.468;2022-09-21T05:13:59;8.80;99.90
13462;DHT22;6803;45.264;5.468;2022-09-21T05:16:29;8.80;99.90
13462;DHT22;6803;45.264;5.468;2022-09-21T05:19:00;8.90;99.90
13462;DHT22;6803;45.264;5.468;2022-09-21T05:21:30;8.90;99.90
13462;DHT22;6803;45.264;5.468;2022-09-21T05:24:02;8.90;99.90
13462;DHT22;6803;45.264;5.468;2022-09-21T05:26:32;8.80;99.90
13462;DHT22;6803;45.264;5.468;2022-09-21T05:29:04;8.80;99.90
13462;DHT22;6803;45.264;5.468;2022-09-21T05:31:42;8.80;99.90
13462;DHT22;6803;45.264;5.468;2022-09-21T05:34:22;8.80;99.90
13462;DHT22;6803;45.264;5.468;2022-09-21T05:36:56;8.90;99.90
13462;DHT22;6803;45.264;5.468;2022-09-21T05:39:29;9.00;99.90
13462;DHT22;6803;45.264;5.468;2022-09-21T05:42:01;9.10;99.90
13462;DHT22;6803;45.264;5.468;2022-09-21T05:44:34;9.10;99.90
13462;DHT22;6803;45.264;5.468;2022-09-21T05:47:10;9.10;99.90
13462;DHT22;6803;45.264;5.468;2022-09-21T05:49:46;9.20;99.90
13462;DHT22;6803;45.264;5.468;2022-09-21T05:52:20;9.20;99.90
13462;DHT22;6803;45.264;5.468;2022-09-21T05:55:01;9.40;99.90
13462;DHT22;6803;45.264;5.468;2022-09-21T05:57:38;9.40;99.90
13462;DHT22;6803;45.264;5.468;2022-09-21T06:00:15;9.50;99.90
13462;DHT22;6803;45.264;5.468;2022-09-21T06:05:52;9.30;99.90
13462;DHT22;6803;45.264;5.468;2022-09-21T06:08:23;9.40;99.90
13462;DHT22;6803;45.264;5.468;2022-09-21T06:10:54;9.40;99.90
13462;DHT22;6803;45.264;5.468;2022-09-21T06:13:25;9.30;99.90
13462;DHT22;6803;45.264;5.468;2022-09-21T06:15:56;9.30;99.90
13462;DHT22;6803;45.264;5.468;2022-09-21T06:18:28;9.40;99.90
13462;DHT22;6803;45.264;5.468;2022-09-21T06:20:59;9.40;99.90
13462;DHT22;6803;45.264;5.468;2022-09-21T06:23:29;9.30;99.90
13462;DHT22;6803;45.264;5.468;2022-09-21T06:26:00;9.40;99.90
13462;DHT22;6803;45.264;5.468;2022-09-21T06:28:31;9.40;99.90
13462;DHT22;6803;45.264;5.468;2022-09-21T06:31:01;9.50;99.90
13462;DHT22;6803;45.264;5.468;2022-09-21T06:33:32;9.60;99.90
13462;DHT22;6803;45.264;5.468;2022-09-21T06:36:05;9.50;99.90
13462;DHT22;6803;45.264;5.468;2022-09-21T06:38:35;9.50;99.90
13462;DHT22;6803;45.264;5.468;2022-09-21T06:41:06;9.60;99.90
13462;DHT22;6803;45.264;5.468;2022-09-21T06:43:37;9.80;99.90
13462;DHT22;6803;45.264;5.468;2022-09-21T06:46:07;9.90;99.90
13462;DHT22;6803;45.264;5.468;2022-09-21T06:48:38;10.10;99.90
13462;DHT22;6803;45.264;5.468;2022-09-21T06:51:09;10.20;99.90
13462;DHT22;6803;45.264;5.468;2022-09-21T06:53:40;10.30;99.90
13462;DHT22;6803;45.264;5.468;2022-09-21T06:56:10;10.40;99.90
13462;DHT22;6803;45.264;5.468;2022-09-21T06:58:41;10.40;99.90
13462;DHT22;6803;45.264;5.468;2022-09-21T07:01:12;10.60;99.90
13462;DHT22;6803;45.264;5.468;2022-09-21T07:03:47;10.70;99.90
13462;DHT22;6803;45.264;5.468;2022-09-21T07:06:16;10.60;99.90
13462;DHT22;6803;45.264;5.468;2022-09-21T07:08:50;10.60;99.90
13462;DHT22;6803;45.264;5.468;2022-09-21T07:11:23;10.90;99.90
13462;DHT22;6803;45.264;5.468;2022-09-21T07:13:55;11.10;99.90
13462;DHT22;6803;45.264;5.468;2022-09-21T07:16:26;11.10;99.90
13462;DHT22;6803;45.264;5.468;2022-09-21T07:18:57;11.20;99.90
13462;DHT22;6803;45.264;5.468;2022-09-21T07:21:29;11.20;99.90
13462;DHT22;6803;45.264;5.468;2022-09-21T07:24:00;11.30;99.90
13462;DHT22;6803;45.264;5.468;2022-09-21T07:26:31;11.60;99.90
13462;DHT22;6803;45.264;5.468;2022-09-21T07:29:02;11.70;99.90
13462;DHT22;6803;45.264;5.468;2022-09-21T07:31:33;11.90;99.90
13462;DHT22;6803;45.264;5.468;2022-09-21T07:34:04;12.00;99.90
13462;DHT22;6803;45.264;5.468;2022-09-21T07:36:34;12.10;99.90
13462;DHT22;6803;45.264;5.468;2022-09-21T07:39:07;12.30;99.90
13462;DHT22;6803;45.264;5.468;2022-09-21T07:41:38;12.30;99.90
13462;DHT22;6803;45.264;5.468;2022-09-21T07:44:09;12.40;99.90
13462;DHT22;6803;45.264;5.468;2022-09-21T07:46:40;12.60;99.90
13462;DHT22;6803;45.264;5.468;2022-09-21T07:49:13;12.80;99.90
13462;DHT22;6803;45.264;5.468;2022-09-21T07:51:43;12.80;99.90
13462;DHT22;6803;45.264;5.468;2022-09-21T07:54:14;12.80;99.90
13462;DHT22;6803;45.264;5.468;2022-09-21T07:56:44;12.70;99.90
13462;DHT22;6803;45.264;5.468;2022-09-21T07:59:16;12.90;99.90
13462;DHT22;6803;45.264;5.468;2022-09-21T08:01:48;13.00;99.90
13462;DHT22;6803;45.264;5.468;2022-09-21T08:04:19;13.10;99.90
13462;DHT22;6803;45.264;5.468;2022-09-21T08:06:49;13.10;99.90
13462;DHT22;6803;45.264;5.468;2022-09-21T08:09:20;13.20;99.90
13462;DHT22;6803;45.264;5.468;2022-09-21T08:11:50;13.30;99.90
13462;DHT22;6803;45.264;5.468;2022-09-21T08:14:22;13.40;99.90
13462;DHT22;6803;45.264;5.468;2022-09-21T08:16:54;13.40;99.90
13462;DHT22;6803;45.264;5.468;2022-09-21T08:19:25;13.50;99.90
13462;DHT22;6803;45.264;5.468;2022-09-21T08:21:55;13.70;99.90
13462;DHT22;6803;45.264;5.468;2022-09-21T08:24:27;13.80;99.90
13462;DHT22;6803;45.264;5.468;2022-09-21T08:26:57;13.80;99.90
13462;DHT22;6803;45.264;5.468;2022-09-21T08:29:28;14.00;99.90
13462;DHT22;6803;45.264;5.468;2022-09-21T08:31:58;14.00;99.90
13462;DHT22;6803;45.264;5.468;2022-09-21T08:34:29;14.20;99.90
13462;DHT22;6803;45.264;5.468;2022-09-21T08:37:00;14.10;99.90
13462;DHT22;6803;45.264;5.468;2022-09-21T08:39:30;14.20;99.90
13462;DHT22;6803;45.264;5.468;2022-09-21T08:42:13;14.20;99.90
13462;DHT22;6803;45.264;5.468;2022-09-21T08:44:46;14.30;99.90
13462;DHT22;6803;45.264;5.468;2022-09-21T08:47:20;14.40;99.90
13462;DHT22;6803;45.264;5.468;2022-09-21T08:49:54;14.40;99.90
13462;DHT22;6803;45.264;5.468;2022-09-21T08:52:24;14.70;99.90
13462;DHT22;6803;45.264;5.468;2022-09-21T08:54:57;14.60;99.90
13462;DHT22;6803;45.264;5.468;2022-09-21T08:57:31;14.70;99.90
13462;DHT22;6803;45.264;5.468;2022-09-21T09:00:11;14.70;99.90
13462;DHT22;6803;45.264;5.468;2022-09-21T09:02:47;14.90;99.90
13462;DHT22;6803;45.264;5.468;2022-09-21T09:05:24;15.00;99.90
13462;DHT22;6803;45.264;5.468;2022-09-21T09:08:15;15.00;99.90
13462;DHT22;6803;45.264;5.468;2022-09-21T09:10:54;14.80;99.90
13462;DHT22;6803;45.264;5.468;2022-09-21T09:13:37;15.20;99.90
13462;DHT22;6803;45.264;5.468;2022-09-21T09:16:12;15.10;99.90
13462;DHT22;6803;45.264;5.468;2022-09-21T09:21:25;15.30;99.90
13462;DHT22;6803;45.264;5.468;2022-09-21T09:24:01;15.30;99.90
13462;DHT22;6803;45.264;5.468;2022-09-21T09:26:36;15.50;99.90
13462;DHT22;6803;45.264;5.468;2022-09-21T09:29:15;15.40;99.90
13462;DHT22;6803;45.264;5.468;2022-09-21T09:31:46;15.10;99.90
13462;DHT22;6803;45.264;5.468;2022-09-21T09:34:20;15.40;99.90
13462;DHT22;6803;45.264;5.468;2022-09-21T09:36:56;15.50;99.90
13462;DHT22;6803;45.264;5.468;2022-09-21T09:39:30;15.50;99.90
13462;DHT22;6803;45.264;5.468;2022-09-21T09:42:26;15.90;99.90
13462;DHT22;6803;45.264;5.468;2022-09-21T09:45:17;15.80;99.90
13462;DHT22;6803;45.264;5.468;2022-09-21T09:47:56;15.90;99.90
13462;DHT22;6803;45.264;5.468;2022-09-21T09:50:31;16.30;99.90
13462;DHT22;6803;45.264;5.468;2022-09-21T09:53:05;16.40;99.90
13462;DHT22;6803;45.264;5.468;2022-09-21T09:55:38;16.10;99.90
13462;DHT22;6803;45.264;5.468;2022-09-21T09:58:16;16.50;99.90
13462;DHT22;6803;45.264;5.468;2022-09-21T10:00:49;16.50;99.90
13462;DHT22;6803;45.264;5.468;2022-09-21T10:03:23;16.00;99.90
13462;DHT22;6803;45.264;5.468;2022-09-21T10:05:54;16.50;99.90
13462;DHT22;6803;45.264;5.468;2022-09-21T10:08:37;17.00;99.90
13462;DHT22;6803;45.264;5.468;2022-09-21T10:11:03;17.10;99.90
13462;DHT22;6803;45.264;5.468;2022-09-21T10:13:35;17.00;99.90
13462;DHT22;6803;45.264;5.468;2022-09-21T10:16:11;17.10;99.90
13462;DHT22;6803;45.264;5.468;2022-09-21T10:18:47;17.20;99.90
13462;DHT22;6803;45.264;5.468;2022-09-21T10:21:20;17.20;99.90
13462;DHT22;6803;45.264;5.468;2022-09-21T10:23:55;17.40;99.90
13462;DHT22;6803;45.264;5.468;2022-09-21T10:26:30;17.50;99.90
13462;DHT22;6803;45.264;5.468;2022-09-21T10:29:16;17.40;99.90
13462;DHT22;6803;45.264;5.468;2022-09-21T10:31:35;17.50;99.90
13462;DHT22;6803;45.264;5.468;2022-09-21T10:34:11;17.30;99.90
13462;DHT22;6803;45.264;5.468;2022-09-21T10:36:47;17.30;99.90
13462;DHT22;6803;45.264;5.468;2022-09-21T10:39:22;17.30;99.90
13462;DHT22;6803;45.264;5.468;2022-09-21T10:42:02;17.90;99.90
13462;DHT22;6803;45.264;5.468;2022-09-21T10:44:39;17.90;99.90
13462;DHT22;6803;45.264;5.468;2022-09-21T10:47:20;17.90;99.90
13462;DHT22;6803;45.264;5.468;2022-09-21T10:52:35;17.80;99.90
13462;DHT22;6803;45.264;5.468;2022-09-21T10:55:14;17.70;99.90
13462;DHT22;6803;45.264;5.468;2022-09-21T10:57:45;17.90;99.90
13462;DHT22;6803;45.264;5.468;2022-09-21T11:00:29;17.80;99.90
13462;DHT22;6803;45.264;5.468;2022-09-21T11:05:49;18.90;99.90
13462;DHT22;6803;45.264;5.468;2022-09-21T11:11:03;18.70;99.90
13462;DHT22;6803;45.264;5.468;2022-09-21T11:13:28;18.30;99.90
13462;DHT22;6803;45.264;5.468;2022-09-21T11:16:01;18.90;99.90
13462;DHT22;6803;45.264;5.468;2022-09-21T11:18:39;19.40;99.90
13462;DHT22;6803;45.264;5.468;2022-09-21T11:21:14;19.70;99.90
13462;DHT22;6803;45.264;5.468;2022-09-21T11:23:48;19.70;99.90
13462;DHT22;6803;45.264;5.468;2022-09-21T11:26:22;19.60;99.90
13462;DHT22;6803;45.264;5.468;2022-09-21T11:28:56;19.60;99.90
13462;DHT22;6803;45.264;5.468;2022-09-21T11:37:39;19.10;99.90
13462;DHT22;6803;45.264;5.468;2022-09-21T11:40:21;19.40;99.90
13462;DHT22;6803;45.264;5.468;2022-09-21T11:42:56;19.70;99.90
13462;DHT22;6803;45.264;5.468;2022-09-21T11:45:36;20.40;99.90
13462;DHT22;6803;45.264;5.468;2022-09-21T11:48:12;20.10;99.90
13462;DHT22;6803;45.264;5.468;2022-09-21T11:50:51;20.70;99.90
13462;DHT22;6803;45.264;5.468;2022-09-21T11:53:33;20.80;99.90
13462;DHT22;6803;45.264;5.468;2022-09-21T11:56:26;20.50;99.90
13462;DHT22;6803;45.264;5.468;2022-09-21T11:59:08;20.40;99.90
13462;DHT22;6803;45.264;5.468;2022-09-21T12:01:44;20.00;99.90
13462;DHT22;6803;45.264;5.468;2022-09-21T12:04:27;20.80;99.90
13462;DHT22;6803;45.264;5.468;2022-09-21T12:07:04;21.30;99.90
13462;DHT22;6803;45.264;5.468;2022-09-21T12:10:00;21.50;99.90
13462;DHT22;6803;45.264;5.468;2022-09-21T12:15:16;21.70;99.90
13462;DHT22;6803;45.264;5.468;2022-09-21T12:17:51;21.30;99.90
13462;DHT22;6803;45.264;5.468;2022-09-21T12:20:27;21.60;99.90
13462;DHT22;6803;45.264;5.468;2022-09-21T12:23:01;20.70;99.90
13462;DHT22;6803;45.264;5.468;2022-09-21T12:25:36;20.60;99.90
13462;DHT22;6803;45.264;5.468;2022-09-21T12:28:09;21.20;99.90
13462;DHT22;6803;45.264;5.468;2022-09-21T12:30:43;21.40;99.90
13462;DHT22;6803;45.264;5.468;2022-09-21T12:33:18;21.00;99.90
13462;DHT22;6803;45.264;5.468;2022-09-21T12:35:52;21.60;99.90
13462;DHT22;6803;45.264;5.468;2022-09-21T12:38:25;22.10;99.90
13462;DHT22;6803;45.264;5.468;2022-09-21T12:41:01;21.40;99.90
13462;DHT22;6803;45.264;5.468;2022-09-21T12:43:34;21.90;99.90
13462;DHT22;6803;45.264;5.468;2022-09-21T12:46:08;22.40;99.90
13462;DHT22;6803;45.264;5.468;2022-09-21T12:48:40;22.10;99.90
13462;DHT22;6803;45.264;5.468;2022-09-21T12:51:14;20.30;99.90
13462;DHT22;6803;45.264;5.468;2022-09-21T12:53:47;21.50;99.90
13462;DHT22;6803;45.264;5.468;2022-09-21T12:56:27;21.30;99.90
13462;DHT22;6803;45.264;5.468;2022-09-21T12:59:12;21.90;99.90
13462;DHT22;6803;45.264;5.468;2022-09-21T13:01:47;22.10;99.90
13462;DHT22;6803;45.264;5.468;2022-09-21T13:07:30;22.70;99.90
13462;DHT22;6803;45.264;5.468;2022-09-21T13:10:11;22.80;99.90
13462;DHT22;6803;45.264;5.468;2022-09-21T13:12:37;22.40;99.90
13462;DHT22;6803;45.264;5.468;2022-09-21T13:15:16;21.40;99.90
13462;DHT22;6803;45.264;5.468;2022-09-21T13:17:56;21.70;99.90
13462;DHT22;6803;45.264;5.468;2022-09-21T13:20:33;22.20;99.90
13462;DHT22;6803;45.264;5.468;2022-09-21T13:23:05;23.00;99.90
13462;DHT22;6803;45.264;5.468;2022-09-21T13:25:36;23.10;99.90
13462;DHT22;6803;45.264;5.468;2022-09-21T13:28:19;22.00;99.90
13462;DHT22;6803;45.264;5.468;2022-09-21T13:31:28;21.90;99.90
13462;DHT22;6803;45.264;5.468;2022-09-21T13:34:28;22.60;99.90
13462;DHT22;6803;45.264;5.468;2022-09-21T13:37:26;22.50;99.90
13462;DHT22;6803;45.264;5.468;2022-09-21T13:43:23;22.80;99.90
13462;DHT22;6803;45.264;5.468;2022-09-21T13:45:57;22.50;99.90
13462;DHT22;6803;45.264;5.468;2022-09-21T13:48:28;22.70;99.90
13462;DHT22;6803;45.264;5.468;2022-09-21T13:51:06;22.50;99.90
13462;DHT22;6803;45.264;5.468;2022-09-21T13:53:40;22.90;99.90
13462;DHT22;6803;45.264;5.468;2022-09-21T13:56:18;22.80;99.90
13462;DHT22;6803;45.264;5.468;2022-09-21T13:58:52;22.90;99.90
13462;DHT22;6803;45.264;5.468;2022-09-21T14:01:30;23.60;99.90
13462;DHT22;6803;45.264;5.468;2022-09-21T14:06:41;24.40;98.50
13462;DHT22;6803;45.264;5.468;2022-09-21T14:09:22;24.40;99.10
13462;DHT22;6803;45.264;5.468;2022-09-21T14:11:58;23.80;99.90
13462;DHT22;6803;45.264;5.468;2022-09-21T14:14:33;23.80;99.90
13462;DHT22;6803;45.264;5.468;2022-09-21T14:17:16;23.50;99.00
13462;DHT22;6803;45.264;5.468;2022-09-21T14:20:24;24.00;98.50
13462;DHT22;6803;45.264;5.468;2022-09-21T14:23:27;23.10;99.40
13462;DHT22;6803;45.264;5.468;2022-09-21T14:25:58;23.20;99.90
13462;DHT22;6803;45.264;5.468;2022-09-21T14:28:34;23.10;99.50
13462;DHT22;6803;45.264;5.468;2022-09-21T14:31:11;23.20;99.90
13462;DHT22;6803;45.264;5.468;2022-09-21T14:33:44;23.60;99.20
13462;DHT22;6803;45.264;5.468;2022-09-21T14:36:18;23.90;99.50
13462;DHT22;6803;45.264;5.468;2022-09-21T14:41:37;23.40;98.30
13462;DHT22;6803;45.264;5.468;2022-09-21T14:44:05;21.90;99.10
13462;DHT22;6803;45.264;5.468;2022-09-21T14:46:55;21.50;99.90
13462;DHT22;6803;45.264;5.468;2022-09-21T14:49:38;21.30;99.90
13462;DHT22;6803;45.264;5.468;2022-09-21T14:52:17;21.50;99.90
13462;DHT22;6803;45.264;5.468;2022-09-21T14:54:54;21.60;99.90
13462;DHT22;6803;45.264;5.468;2022-09-21T14:57:36;21.50;99.90
13462;DHT22;6803;45.264;5.468;2022-09-21T15:00:18;20.90;99.90
13462;DHT22;6803;45.264;5.468;2022-09-21T15:03:00;21.00;99.90
13462;DHT22;6803;45.264;5.468;2022-09-21T15:08:32;20.20;99.90
13462;DHT22;6803;45.264;5.468;2022-09-21T15:11:23;20.00;99.90
13462;DHT22;6803;45.264;5.468;2022-09-21T15:14:06;19.70;99.90
13462;DHT22;6803;45.264;5.468;2022-09-21T15:16:40;19.30;99.90
13462;DHT22;6803;45.264;5.468;2022-09-21T15:19:19;19.30;99.90
13462;DHT22;6803;45.264;5.468;2022-09-21T15:21:48;19.20;99.90
13462;DHT22;6803;45.264;5.468;2022-09-21T15:24:27;19.30;99.90
13462;DHT22;6803;45.264;5.468;2022-09-21T15:27:06;19.20;99.90
13462;DHT22;6803;45.264;5.468;2022-09-21T15:29:40;19.00;99.90
13462;DHT22;6803;45.264;5.468;2022-09-21T15:32:22;18.90;99.90
13462;DHT22;6803;45.264;5.468;2022-09-21T15:34:58;18.70;99.90
13462;DHT22;6803;45.264;5.468;2022-09-21T15:37:34;18.60;99.90
13462;DHT22;6803;45.264;5.468;2022-09-21T15:40:18;18.50;99.90
13462;DHT22;6803;45.264;5.468;2022-09-21T15:45:43;18.20;99.90
13462;DHT22;6803;45.264;5.468;2022-09-21T15:48:11;18.00;99.90
13462;DHT22;6803;45.264;5.468;2022-09-21T15:50:43;18.00;99.90
13462;DHT22;6803;45.264;5.468;2022-09-21T15:53:18;17.90;99.90
13462;DHT22;6803;45.264;5.468;2022-09-21T15:55:51;17.70;99.90
13462;DHT22;6803;45.264;5.468;2022-09-21T15:58:29;17.60;99.90
13462;DHT22;6803;45.264;5.468;2022-09-21T16:01:08;17.60;99.90
13462;DHT22;6803;45.264;5.468;2022-09-21T16:03:40;17.70;99.90
13462;DHT22;6803;45.264;5.468;2022-09-21T16:06:26;17.60;99.90
13462;DHT22;6803;45.264;5.468;2022-09-21T16:08:57;17.60;99.90
13462;DHT22;6803;45.264;5.468;2022-09-21T16:11:35;17.50;99.90
13462;DHT22;6803;45.264;5.468;2022-09-21T16:14:11;17.50;99.90
13462;DHT22;6803;45.264;5.468;2022-09-21T16:20:17;17.50;99.90
13462;DHT22;6803;45.264;5.468;2022-09-21T16:22:51;17.60;99.90
13462;DHT22;6803;45.264;5.468;2022-09-21T16:25:26;17.40;99.90
13462;DHT22;6803;45.264;5.468;2022-09-21T16:28:02;17.30;99.90
13462;DHT22;6803;45.264;5.468;2022-09-21T16:30:42;17.20;99.90
13462;DHT22;6803;45.264;5.468;2022-09-21T16:36:45;17.10;99.90
13462;DHT22;6803;45.264;5.468;2022-09-21T16:39:17;17.00;99.90
13462;DHT22;6803;45.264;5.468;2022-09-21T16:41:54;16.90;99.90
13462;DHT22;6803;45.264;5.468;2022-09-21T16:44:27;16.90;99.90
13462;DHT22;6803;45.264;5.468;2022-09-21T16:47:01;16.80;99.90
13462;DHT22;6803;45.264;5.468;2022-09-21T16:49:33;16.80;99.90
13462;DHT22;6803;45.264;5.468;2022-09-21T16:52:04;16.70;99.90
13462;DHT22;6803;45.264;5.468;2022-09-21T16:54:35;16.60;99.90
13462;DHT22;6803;45.264;5.468;2022-09-21T16:57:06;16.50;99.90
13462;DHT22;6803;45.264;5.468;2022-09-21T16:59:37;16.50;99.90
13462;DHT22;6803;45.264;5.468;2022-09-21T17:04:47;16.40;99.90
13462;DHT22;6803;45.264;5.468;2022-09-21T17:07:19;16.30;99.90
13462;DHT22;6803;45.264;5.468;2022-09-21T17:09:50;16.20;99.90
13462;DHT22;6803;45.264;5.468;2022-09-21T17:12:20;16.10;99.90
13462;DHT22;6803;45.264;5.468;2022-09-21T17:14:52;16.00;99.90
13462;DHT22;6803;45.264;5.468;2022-09-21T17:17:25;16.00;99.90
13462;DHT22;6803;45.264;5.468;2022-09-21T17:19:56;15.80;99.90
13462;DHT22;6803;45.264;5.468;2022-09-21T17:22:26;15.70;99.90
13462;DHT22;6803;45.264;5.468;2022-09-21T17:24:57;15.60;99.90
13462;DHT22;6803;45.264;5.468;2022-09-21T17:27:27;15.60;99.90
13462;DHT22;6803;45.264;5.468;2022-09-21T17:29:58;15.50;99.90
13462;DHT22;6803;45.264;5.468;2022-09-21T17:32:30;15.50;99.90